sensor_id;sensor_type;location;lat;lon;timestamp;temperature;humidity
5466;DHT22;2755;50.728;7.108;2024-02-23T00:01:40;5.80;1.00
5466;DHT22;2755;50.728;7.108;2024-02-23T00:06:33;5.80;1.00
5466;DHT22;2755;50.728;7.108;2024-02-23T00:08:59;5.20;1.00
5466;DHT22;2755;50.728;7.108;2024-02-23T00:11:25;5.60;1.00
5466;DHT22;2755;50.728;7.108;2024-02-23T00:13:50;5.30;1.00
5466;DHT22;2755;50.728;7.108;2024-02-23T00:16:16;5.30;1.00
5466;DHT22;2755;50.728;7.108;2024-02-23T00:23:33;5.10;1.00
5466;DHT22;2755;50.728;7.108;2024-02-23T00:25:59;5.50;1.00
5466;DHT22;2755;50.728;7.108;2024-02-23T00:28:24;6.30;1.00
5466;DHT22;2755;50.728;7.108;2024-02-23T00:30:50;6.20;1.00
5466;DHT22;2755;50.728;7.108;2024-02-23T00:33:15;5.20;1.00
5466;DHT22;2755;50.728;7.108;2024-02-23T00:35:41;5.60;1.00
5466;DHT22;2755;50.728;7.108;2024-02-23T00:38:06;5.90;1.00
5466;DHT22;2755;50.728;7.108;2024-02-23T00:40:33;5.30;1.00
5466;DHT22;2755;50.728;7.108;2024-02-23T00:42:58;4.80;1.00
5466;DHT22;2755;50.728;7.108;2024-02-23T00:45:25;5.90;1.00
5466;DHT22;2755;50.728;7.108;2024-02-23T00:47:51;4.80;1.00
5466;DHT22;2755;50.728;7.108;2024-02-23T00:50:16;5.20;1.00
5466;DHT22;2755;50.728;7.108;2024-02-23T00:55:08;5.10;1.00
5466;DHT22;2755;50.728;7.108;2024-02-23T00:57:35;5.10;1.00
5466;DHT22;2755;50.728;7.108;2024-02-23T01:00:01;4.90;1.00
5466;DHT22;2755;50.728;7.108;2024-02-23T01:02:30;5.30;1.00
5466;DHT22;2755;50.728;7.108;2024-02-23T01:04:56;4.80;1.00
5466;DHT22;2755;50.728;7.108;2024-02-23T01:07:24;4.60;1.00
5466;DHT22;2755;50.728;7.108;2024-02-23T01:09:50;4.90;1.00
5466;DHT22;2755;50.728;7.108;2024-02-23T01:12:15;4.90;1.00
5466;DHT22;2755;50.728;7.108;2024-02-23T01:14:41;4.90;1.00
5466;DHT22;2755;50.728;7.108;2024-02-23T01:17:06;4.60;1.00
5466;DHT22;2755;50.728;7.108;2024-02-23T01:24:27;4.80;1.00
5466;DHT22;2755;50.728;7.108;2024-02-23T01:26:58;4.70;1.00
5466;DHT22;2755;50.728;7.108;2024-02-23T01:29:26;4.30;1.00
5466;DHT22;2755;50.728;7.108;2024-02-23T01:31:51;4.40;1.00
5466;DHT22;2755;50.728;7.108;2024-02-23T01:34:18;4.50;1.00
5466;DHT22;2755;50.728;7.108;2024-02-23T01:36:44;4.60;1.00
5466;DHT22;2755;50.728;7.108;2024-02-23T01:41:36;4.60;1.00
5466;DHT22;2755;50.728;7.108;2024-02-23T01:44:02;4.60;1.00
5466;DHT22;2755;50.728;7.108;2024-02-23T01:46:28;4.60;1.00
5466;DHT22;2755;50.728;7.108;2024-02-23T01:48:53;4.50;1.00
5466;DHT22;2755;50.728;7.108;2024-02-23T01:51:20;4.90;1.00
5466;DHT22;2755;50.728;7.108;2024-02-23T01:53:46;4.60;1.00
5466;DHT22;2755;50.728;7.108;2024-02-23T01:56:13;4.30;1.00
5466;DHT22;2755;50.728;7.108;2024-02-23T01:58:43;4.40;1.00
5466;DHT22;2755;50.728;7.108;2024-02-23T02:01:10;4.30;1.00
5466;DHT22;2755;50.728;7.108;2024-02-23T02:03:37;4.30;1.00
5466;DHT22;2755;50.728;7.108;2024-02-23T02:06:06;4.80;1.00
5466;DHT22;2755;50.728;7.108;2024-02-23T02:08:36;5.20;1.00
5466;DHT22;2755;50.728;7.108;2024-02-23T02:11:02;4.70;1.00
5466;DHT22;2755;50.728;7.108;2024-02-23T02:13:29;4.70;1.00
5466;DHT22;2755;50.728;7.108;2024-02-23T02:15:55;4.40;1.00
5466;DHT22;2755;50.728;7.108;2024-02-23T02:18:21;4.70;1.00
5466;DHT22;2755;50.728;7.108;2024-02-23T02:20:56;4.50;1.00
5466;DHT22;2755;50.728;7.108;2024-02-23T02:23:22;4.40;1.00
5466;DHT22;2755;50.728;7.108;2024-02-23T02:25:56;3.80;1.00
5466;DHT22;2755;50.728;7.108;2024-02-23T02:28:23;4.60;1.00
5466;DHT22;2755;50.728;7.108;2024-02-23T02:30:49;4.60;1.00
5466;DHT22;2755;50.728;7.108;2024-02-23T02:33:15;4.20;1.00
5466;DHT22;2755;50.728;7.108;2024-02-23T02:35:40;4.40;1.00
5466;DHT22;2755;50.728;7.108;2024-02-23T02:38:06;4.50;1.00
5466;DHT22;2755;50.728;7.108;2024-02-23T02:45:24;4.40;1.00
5466;DHT22;2755;50.728;7.108;2024-02-23T02:47:49;3.90;1.00
5466;DHT22;2755;50.728;7.108;2024-02-23T02:50:15;3.80;1.00
5466;DHT22;2755;50.728;7.108;2024-02-23T02:52:41;4.40;1.00
5466;DHT22;2755;50.728;7.108;2024-02-23T02:55:07;4.60;1.00
5466;DHT22;2755;50.728;7.108;2024-02-23T02:57:33;4.40;1.00
5466;DHT22;2755;50.728;7.108;2024-02-23T03:00:01;4.50;1.00
5466;DHT22;2755;50.728;7.108;2024-02-23T03:02:30;3.40;1.00
5466;DHT22;2755;50.728;7.108;2024-02-23T03:04:56;4.20;1.00
5466;DHT22;2755;50.728;7.108;2024-02-23T03:09:47;4.50;1.00
5466;DHT22;2755;50.728;7.108;2024-02-23T03:12:14;4.10;1.00
5466;DHT22;2755;50.728;7.108;2024-02-23T03:14:40;4.50;1.00
5466;DHT22;2755;50.728;7.108;2024-02-23T03:17:07;4.30;1.00
5466;DHT22;2755;50.728;7.108;2024-02-23T03:19:33;3.60;1.00
5466;DHT22;2755;50.728;7.108;2024-02-23T03:21:59;3.50;1.00
5466;DHT22;2755;50.728;7.108;2024-02-23T03:24:24;4.40;1.00
5466;DHT22;2755;50.728;7.108;2024-02-23T03:26:50;3.90;1.00
5466;DHT22;2755;50.728;7.108;2024-02-23T03:29:15;4.20;1.00
5466;DHT22;2755;50.728;7.108;2024-02-23T03:31:41;4.10;1.00
5466;DHT22;2755;50.728;7.108;2024-02-23T03:34:07;4.40;1.00
5466;DHT22;2755;50.728;7.108;2024-02-23T03:38:59;4.10;1.00
5466;DHT22;2755;50.728;7.108;2024-02-23T03:41:24;4.00;1.00
5466;DHT22;2755;50.728;7.108;2024-02-23T03:46:16;4.20;1.00
5466;DHT22;2755;50.728;7.108;2024-02-23T03:48:43;4.30;1.00
5466;DHT22;2755;50.728;7.108;2024-02-23T03:51:09;4.10;1.00
5466;DHT22;2755;50.728;7.108;2024-02-23T03:58:27;4.20;1.00
5466;DHT22;2755;50.728;7.108;2024-02-23T04:03:18;4.20;1.00
5466;DHT22;2755;50.728;7.108;2024-02-23T04:05:44;3.70;1.00
5466;DHT22;2755;50.728;7.108;2024-02-23T04:08:09;4.40;1.00
5466;DHT22;2755;50.728;7.108;2024-02-23T04:13:01;4.10;1.00
5466;DHT22;2755;50.728;7.108;2024-02-23T04:15:27;4.10;1.00
5466;DHT22;2755;50.728;7.108;2024-02-23T04:20:18;4.10;1.00
5466;DHT22;2755;50.728;7.108;2024-02-23T04:22:44;4.00;1.00
5466;DHT22;2755;50.728;7.108;2024-02-23T04:25:10;4.30;1.00
5466;DHT22;2755;50.728;7.108;2024-02-23T04:27:35;4.20;1.00
5466;DHT22;2755;50.728;7.108;2024-02-23T04:30:02;4.10;1.00
5466;DHT22;2755;50.728;7.108;2024-02-23T04:32:27;4.20;1.00
5466;DHT22;2755;50.728;7.108;2024-02-23T04:34:53;3.50;1.00
5466;DHT22;2755;50.728;7.108;2024-02-23T04:37:19;4.40;1.00
5466;DHT22;2755;50.728;7.108;2024-02-23T04:39:44;5.00;1.00
5466;DHT22;2755;50.728;7.108;2024-02-23T04:42:10;4.30;1.00
5466;DHT22;2755;50.728;7.108;2024-02-23T04:44:35;4.20;1.00
5466;DHT22;2755;50.728;7.108;2024-02-23T04:47:01;3.90;1.00
5466;DHT22;2755;50.728;7.108;2024-02-23T04:49:27;4.00;1.00
5466;DHT22;2755;50.728;7.108;2024-02-23T04:51:54;4.00;1.00
5466;DHT22;2755;50.728;7.108;2024-02-23T04:54:19;3.90;1.00
5466;DHT22;2755;50.728;7.108;2024-02-23T04:56:46;4.00;1.00
5466;DHT22;2755;50.728;7.108;2024-02-23T04:59:13;3.50;1.00
5466;DHT22;2755;50.728;7.108;2024-02-23T05:04:05;4.30;1.00
5466;DHT22;2755;50.728;7.108;2024-02-23T05:08:56;4.00;1.00
5466;DHT22;2755;50.728;7.108;2024-02-23T05:13:48;3.80;1.00
5466;DHT22;2755;50.728;7.108;2024-02-23T05:18:40;4.20;1.00
5466;DHT22;2755;50.728;7.108;2024-02-23T05:21:07;3.30;1.00
5466;DHT22;2755;50.728;7.108;2024-02-23T05:25:58;3.90;1.00
5466;DHT22;2755;50.728;7.108;2024-02-23T05:30:51;3.60;1.00
5466;DHT22;2755;50.728;7.108;2024-02-23T05:33:17;4.00;1.00
5466;DHT22;2755;50.728;7.108;2024-02-23T05:35:46;2.00;1.00
5466;DHT22;2755;50.728;7.108;2024-02-23T05:38:16;4.00;1.00
5466;DHT22;2755;50.728;7.108;2024-02-23T05:40:42;3.80;1.00
5466;DHT22;2755;50.728;7.108;2024-02-23T05:43:08;4.00;1.00
5466;DHT22;2755;50.728;7.108;2024-02-23T05:45:34;4.00;1.00
5466;DHT22;2755;50.728;7.108;2024-02-23T05:47:59;4.30;1.00
5466;DHT22;2755;50.728;7.108;2024-02-23T05:50:25;4.10;1.00
5466;DHT22;2755;50.728;7.108;2024-02-23T05:55:19;3.70;1.00
5466;DHT22;2755;50.728;7.108;2024-02-23T06:05:04;3.70;1.00
5466;DHT22;2755;50.728;7.108;2024-02-23T06:07:30;3.80;1.00
5466;DHT22;2755;50.728;7.108;2024-02-23T06:09:56;3.30;1.00
5466;DHT22;2755;50.728;7.108;2024-02-23T06:12:22;3.90;1.00
5466;DHT22;2755;50.728;7.108;2024-02-23T06:22:07;3.40;1.00
5466;DHT22;2755;50.728;7.108;2024-02-23T06:24:33;3.80;1.00
5466;DHT22;2755;50.728;7.108;2024-02-23T06:26:59;3.10;1.00
5466;DHT22;2755;50.728;7.108;2024-02-23T06:29:25;4.20;1.00
5466;DHT22;2755;50.728;7.108;2024-02-23T06:31:50;3.60;1.00
5466;DHT22;2755;50.728;7.108;2024-02-23T06:39:08;3.80;1.00
5466;DHT22;2755;50.728;7.108;2024-02-23T06:41:34;3.80;1.00
5466;DHT22;2755;50.728;7.108;2024-02-23T06:44:00;4.10;1.00
5466;DHT22;2755;50.728;7.108;2024-02-23T06:46:26;3.90;1.00
5466;DHT22;2755;50.728;7.108;2024-02-23T06:51:17;4.20;1.00
5466;DHT22;2755;50.728;7.108;2024-02-23T06:53:43;4.20;1.00
5466;DHT22;2755;50.728;7.108;2024-02-23T06:58:35;3.90;1.00
5466;DHT22;2755;50.728;7.108;2024-02-23T07:01:01;4.20;1.00
5466;DHT22;2755;50.728;7.108;2024-02-23T07:03:28;4.60;1.00
5466;DHT22;2755;50.728;7.108;2024-02-23T07:05:55;4.70;1.00
5466;DHT22;2755;50.728;7.108;2024-02-23T07:10:46;5.00;1.00
5466;DHT22;2755;50.728;7.108;2024-02-23T07:13:13;5.60;1.00
5466;DHT22;2755;50.728;7.108;2024-02-23T07:15:39;5.10;1.00
5466;DHT22;2755;50.728;7.108;2024-02-23T07:18:04;5.90;1.00
5466;DHT22;2755;50.728;7.108;2024-02-23T07:20:30;5.20;1.00
5466;DHT22;2755;50.728;7.108;2024-02-23T07:22:56;5.30;1.00
5466;DHT22;2755;50.728;7.108;2024-02-23T07:25:21;5.30;1.00
5466;DHT22;2755;50.728;7.108;2024-02-23T07:30:16;5.40;1.00
5466;DHT22;2755;50.728;7.108;2024-02-23T07:32:43;5.40;1.00
5466;DHT22;2755;50.728;7.108;2024-02-23T07:35:09;5.60;1.00
5466;DHT22;2755;50.728;7.108;2024-02-23T07:37:36;5.00;1.00
5466;DHT22;2755;50.728;7.108;2024-02-23T07:40:02;5.30;1.00
5466;DHT22;2755;50.728;7.108;2024-02-23T07:44:56;6.10;1.00
5466;DHT22;2755;50.728;7.108;2024-02-23T07:49:47;5.60;1.00
5466;DHT22;2755;50.728;7.108;2024-02-23T07:52:13;5.40;1.00
5466;DHT22;2755;50.728;7.108;2024-02-23T07:54:39;6.60;1.00
5466;DHT22;2755;50.728;7.108;2024-02-23T07:59:30;6.70;1.00
5466;DHT22;2755;50.728;7.108;2024-02-23T08:01:57;6.50;1.00
5466;DHT22;2755;50.728;7.108;2024-02-23T08:04:22;7.10;1.00
5466;DHT22;2755;50.728;7.108;2024-02-23T08:06:48;7.30;1.00
5466;DHT22;2755;50.728;7.108;2024-02-23T08:09:14;6.80;1.00
5466;DHT22;2755;50.728;7.108;2024-02-23T08:11:40;8.00;1.00
5466;DHT22;2755;50.728;7.108;2024-02-23T08:21:25;9.10;1.00
5466;DHT22;2755;50.728;7.108;2024-02-23T08:23:51;8.40;1.00
5466;DHT22;2755;50.728;7.108;2024-02-23T08:26:17;9.40;1.00
5466;DHT22;2755;50.728;7.108;2024-02-23T08:31:08;9.30;1.00
5466;DHT22;2755;50.728;7.108;2024-02-23T08:36:00;9.40;1.00
5466;DHT22;2755;50.728;7.108;2024-02-23T08:38:26;9.20;1.00
5466;DHT22;2755;50.728;7.108;2024-02-23T08:43:17;9.00;1.00
5466;DHT22;2755;50.728;7.108;2024-02-23T08:45:43;8.60;1.00
5466;DHT22;2755;50.728;7.108;2024-02-23T08:48:09;8.60;1.00
5466;DHT22;2755;50.728;7.108;2024-02-23T08:50:34;8.80;1.00
5466;DHT22;2755;50.728;7.108;2024-02-23T08:53:00;8.30;1.00
5466;DHT22;2755;50.728;7.108;2024-02-23T08:55:25;8.30;1.00
5466;DHT22;2755;50.728;7.108;2024-02-23T09:00:17;8.30;1.00
5466;DHT22;2755;50.728;7.108;2024-02-23T09:02:43;8.20;1.00
5466;DHT22;2755;50.728;7.108;2024-02-23T09:07:35;8.60;1.00
5466;DHT22;2755;50.728;7.108;2024-02-23T09:10:01;8.30;1.00
5466;DHT22;2755;50.728;7.108;2024-02-23T09:12:28;8.90;1.00
5466;DHT22;2755;50.728;7.108;2024-02-23T09:17:20;7.80;1.00
5466;DHT22;2755;50.728;7.108;2024-02-23T09:19:46;8.00;1.00
5466;DHT22;2755;50.728;7.108;2024-02-23T09:22:12;8.30;1.00
5466;DHT22;2755;50.728;7.108;2024-02-23T09:24:41;8.20;1.00
5466;DHT22;2755;50.728;7.108;2024-02-23T09:27:06;7.60;1.00
5466;DHT22;2755;50.728;7.108;2024-02-23T09:29:32;8.50;1.00
5466;DHT22;2755;50.728;7.108;2024-02-23T09:31:58;8.00;1.00
5466;DHT22;2755;50.728;7.108;2024-02-23T09:34:24;8.60;1.00
5466;DHT22;2755;50.728;7.108;2024-02-23T09:39:16;8.40;1.00
5466;DHT22;2755;50.728;7.108;2024-02-23T09:41:42;8.30;1.00
5466;DHT22;2755;50.728;7.108;2024-02-23T09:46:37;8.30;1.00
5466;DHT22;2755;50.728;7.108;2024-02-23T09:49:02;8.40;1.00
5466;DHT22;2755;50.728;7.108;2024-02-23T09:51:29;8.50;1.00
5466;DHT22;2755;50.728;7.108;2024-02-23T09:53:56;8.90;1.00
5466;DHT22;2755;50.728;7.108;2024-02-23T09:56:26;8.80;1.00
5466;DHT22;2755;50.728;7.108;2024-02-23T09:58:53;8.80;1.00
5466;DHT22;2755;50.728;7.108;2024-02-23T10:01:28;8.80;1.00
5466;DHT22;2755;50.728;7.108;2024-02-23T10:03:57;8.80;1.00
5466;DHT22;2755;50.728;7.108;2024-02-23T10:06:23;8.80;1.00
5466;DHT22;2755;50.728;7.108;2024-02-23T10:08:49;8.30;1.00
5466;DHT22;2755;50.728;7.108;2024-02-23T10:11:20;9.40;1.00
5466;DHT22;2755;50.728;7.108;2024-02-23T10:13:47;9.40;1.00
5466;DHT22;2755;50.728;7.108;2024-02-23T10:16:15;8.90;1.00
5466;DHT22;2755;50.728;7.108;2024-02-23T10:18:41;9.00;1.00
5466;DHT22;2755;50.728;7.108;2024-02-23T10:21:06;9.00;1.00
5466;DHT22;2755;50.728;7.108;2024-02-23T10:25:58;9.70;1.00
5466;DHT22;2755;50.728;7.108;2024-02-23T10:33:17;8.70;1.00
5466;DHT22;2755;50.728;7.108;2024-02-23T10:35:46;8.70;1.00
5466;DHT22;2755;50.728;7.108;2024-02-23T10:38:17;9.00;1.00
5466;DHT22;2755;50.728;7.108;2024-02-23T10:40:44;8.90;1.00
5466;DHT22;2755;50.728;7.108;2024-02-23T10:43:12;9.10;1.00
5466;DHT22;2755;50.728;7.108;2024-02-23T10:45:42;9.30;1.00
5466;DHT22;2755;50.728;7.108;2024-02-23T10:48:09;9.40;1.00
5466;DHT22;2755;50.728;7.108;2024-02-23T10:50:36;10.20;1.00
5466;DHT22;2755;50.728;7.108;2024-02-23T10:53:04;9.80;1.00
5466;DHT22;2755;50.728;7.108;2024-02-23T10:55:31;11.30;1.00
5466;DHT22;2755;50.728;7.108;2024-02-23T10:57:58;10.90;1.00
5466;DHT22;2755;50.728;7.108;2024-02-23T11:00:24;10.50;1.00
5466;DHT22;2755;50.728;7.108;2024-02-23T11:02:52;10.50;1.00
5466;DHT22;2755;50.728;7.108;2024-02-23T11:05:18;10.80;1.00
5466;DHT22;2755;50.728;7.108;2024-02-23T11:07:47;10.60;1.00
5466;DHT22;2755;50.728;7.108;2024-02-23T11:15:29;11.40;1.00
5466;DHT22;2755;50.728;7.108;2024-02-23T11:17:55;12.10;1.00
5466;DHT22;2755;50.728;7.108;2024-02-23T11:20:20;12.40;1.00
5466;DHT22;2755;50.728;7.108;2024-02-23T11:22:53;13.00;1.00
5466;DHT22;2755;50.728;7.108;2024-02-23T11:25:19;12.50;1.00
5466;DHT22;2755;50.728;7.108;2024-02-23T11:27:49;12.80;1.00
5466;DHT22;2755;50.728;7.108;2024-02-23T11:30:16;13.10;1.00
5466;DHT22;2755;50.728;7.108;2024-02-23T11:32:46;13.40;1.00
5466;DHT22;2755;50.728;7.108;2024-02-23T11:35:14;14.20;1.00
5466;DHT22;2755;50.728;7.108;2024-02-23T11:40:13;13.30;1.00
5466;DHT22;2755;50.728;7.108;2024-02-23T11:42:41;13.90;1.00
5466;DHT22;2755;50.728;7.108;2024-02-23T11:45:08;13.80;1.00
5466;DHT22;2755;50.728;7.108;2024-02-23T11:47:33;13.30;1.00
5466;DHT22;2755;50.728;7.108;2024-02-23T11:49:59;12.80;1.00
5466;DHT22;2755;50.728;7.108;2024-02-23T11:52:25;13.30;1.00
5466;DHT22;2755;50.728;7.108;2024-02-23T11:57:18;13.20;1.00
5466;DHT22;2755;50.728;7.108;2024-02-23T11:59:44;13.20;1.00
5466;DHT22;2755;50.728;7.108;2024-02-23T12:07:01;11.60;1.00
5466;DHT22;2755;50.728;7.108;2024-02-23T12:09:27;12.30;1.00
5466;DHT22;2755;50.728;7.108;2024-02-23T12:14:19;11.80;1.00
5466;DHT22;2755;50.728;7.108;2024-02-23T12:19:11;12.10;1.00
5466;DHT22;2755;50.728;7.108;2024-02-23T12:21:36;10.80;1.00
5466;DHT22;2755;50.728;7.108;2024-02-23T12:24:05;11.50;1.00
5466;DHT22;2755;50.728;7.108;2024-02-23T12:29:02;11.30;1.00
5466;DHT22;2755;50.728;7.108;2024-02-23T12:31:28;11.00;1.00
5466;DHT22;2755;50.728;7.108;2024-02-23T12:33:54;12.00;1.00
5466;DHT22;2755;50.728;7.108;2024-02-23T12:36:23;12.10;1.00
5466;DHT22;2755;50.728;7.108;2024-02-23T12:38:48;11.60;1.00
5466;DHT22;2755;50.728;7.108;2024-02-23T12:41:14;11.20;1.00
5466;DHT22;2755;50.728;7.108;2024-02-23T12:43:40;11.10;1.00
5466;DHT22;2755;50.728;7.108;2024-02-23T12:48:33;11.70;1.00
5466;DHT22;2755;50.728;7.108;2024-02-23T12:50:59;11.20;1.00
5466;DHT22;2755;50.728;7.108;2024-02-23T12:53:38;11.80;1.00
5466;DHT22;2755;50.728;7.108;2024-02-23T12:56:07;11.50;1.00
5466;DHT22;2755;50.728;7.108;2024-02-23T12:58:37;11.30;1.00
5466;DHT22;2755;50.728;7.108;2024-02-23T13:03:29;11.10;1.00
5466;DHT22;2755;50.728;7.108;2024-02-23T13:05:56;11.30;1.00
5466;DHT22;2755;50.728;7.108;2024-02-23T13:08:22;12.00;1.00
5466;DHT22;2755;50.728;7.108;2024-02-23T13:10:48;11.00;1.00
5466;DHT22;2755;50.728;7.108;2024-02-23T13:13:14;11.60;1.00
5466;DHT22;2755;50.728;7.108;2024-02-23T13:15:41;11.80;1.00
5466;DHT22;2755;50.728;7.108;2024-02-23T13:18:06;12.10;1.00
5466;DHT22;2755;50.728;7.108;2024-02-23T13:20:32;11.70;1.00
5466;DHT22;2755;50.728;7.108;2024-02-23T13:27:50;11.70;1.00
5466;DHT22;2755;50.728;7.108;2024-02-23T13:30:15;10.90;1.00
5466;DHT22;2755;50.728;7.108;2024-02-23T13:32:41;11.00;1.00
5466;DHT22;2755;50.728;7.108;2024-02-23T13:37:34;10.50;1.00
5466;DHT22;2755;50.728;7.108;2024-02-23T13:42:25;10.10;1.00
5466;DHT22;2755;50.728;7.108;2024-02-23T13:44:51;10.20;1.00
5466;DHT22;2755;50.728;7.108;2024-02-23T13:47:17;10.70;1.00
5466;DHT22;2755;50.728;7.108;2024-02-23T13:49:42;10.70;1.00
5466;DHT22;2755;50.728;7.108;2024-02-23T13:52:08;10.20;1.00
5466;DHT22;2755;50.728;7.108;2024-02-23T13:57:00;10.50;1.00
5466;DHT22;2755;50.728;7.108;2024-02-23T13:59:25;10.60;1.00
5466;DHT22;2755;50.728;7.108;2024-02-23T14:01:51;10.40;1.00
5466;DHT22;2755;50.728;7.108;2024-02-23T14:06:42;10.30;1.00
5466;DHT22;2755;50.728;7.108;2024-02-23T14:09:09;10.30;1.00
5466;DHT22;2755;50.728;7.108;2024-02-23T14:14:01;10.00;1.00
5466;DHT22;2755;50.728;7.108;2024-02-23T14:16:28;10.60;1.00
5466;DHT22;2755;50.728;7.108;2024-02-23T14:18:54;10.50;1.00
5466;DHT22;2755;50.728;7.108;2024-02-23T14:21:19;10.50;1.00
5466;DHT22;2755;50.728;7.108;2024-02-23T14:23:46;10.40;1.00
5466;DHT22;2755;50.728;7.108;2024-02-23T14:26:12;10.60;1.00
5466;DHT22;2755;50.728;7.108;2024-02-23T14:28:38;9.30;1.00
5466;DHT22;2755;50.728;7.108;2024-02-23T14:35:56;10.50;1.00
5466;DHT22;2755;50.728;7.108;2024-02-23T14:38:22;10.60;1.00
5466;DHT22;2755;50.728;7.108;2024-02-23T14:40:47;10.40;1.00
5466;DHT22;2755;50.728;7.108;2024-02-23T14:43:13;10.30;1.00
5466;DHT22;2755;50.728;7.108;2024-02-23T14:45:39;10.30;1.00
5466;DHT22;2755;50.728;7.108;2024-02-23T14:48:05;10.40;1.00
5466;DHT22;2755;50.728;7.108;2024-02-23T14:52:56;9.90;1.00
5466;DHT22;2755;50.728;7.108;2024-02-23T14:55:22;10.30;1.00
5466;DHT22;2755;50.728;7.108;2024-02-23T14:57:48;10.20;1.00
5466;DHT22;2755;50.728;7.108;2024-02-23T15:02:40;10.20;1.00
5466;DHT22;2755;50.728;7.108;2024-02-23T15:07:32;10.80;1.00
5466;DHT22;2755;50.728;7.108;2024-02-23T15:09:58;10.00;1.00
5466;DHT22;2755;50.728;7.108;2024-02-23T15:12:25;10.50;1.00
5466;DHT22;2755;50.728;7.108;2024-02-23T15:14:53;9.50;1.00
5466;DHT22;2755;50.728;7.108;2024-02-23T15:17:19;10.40;1.00
5466;DHT22;2755;50.728;7.108;2024-02-23T15:22:11;10.30;1.00
5466;DHT22;2755;50.728;7.108;2024-02-23T15:24:40;10.30;1.00
5466;DHT22;2755;50.728;7.108;2024-02-23T15:27:08;10.00;1.00
5466;DHT22;2755;50.728;7.108;2024-02-23T15:29:34;9.80;1.00
5466;DHT22;2755;50.728;7.108;2024-02-23T15:32:00;10.20;1.00
5466;DHT22;2755;50.728;7.108;2024-02-23T15:34:26;10.00;1.00
5466;DHT22;2755;50.728;7.108;2024-02-23T15:36:51;9.90;1.00
5466;DHT22;2755;50.728;7.108;2024-02-23T15:39:17;10.10;1.00
5466;DHT22;2755;50.728;7.108;2024-02-23T15:41:43;9.80;1.00
5466;DHT22;2755;50.728;7.108;2024-02-23T15:46:34;9.60;1.00
5466;DHT22;2755;50.728;7.108;2024-02-23T15:51:42;9.60;1.00
5466;DHT22;2755;50.728;7.108;2024-02-23T15:56:34;9.40;1.00
5466;DHT22;2755;50.728;7.108;2024-02-23T15:59:00;9.90;1.00
5466;DHT22;2755;50.728;7.108;2024-02-23T16:08:50;8.40;1.00
5466;DHT22;2755;50.728;7.108;2024-02-23T16:11:17;8.90;1.00
5466;DHT22;2755;50.728;7.108;2024-02-23T16:16:11;8.60;1.00
5466;DHT22;2755;50.728;7.108;2024-02-23T16:21:04;8.40;1.00
5466;DHT22;2755;50.728;7.108;2024-02-23T16:28:22;8.70;1.00
5466;DHT22;2755;50.728;7.108;2024-02-23T16:30:48;8.00;1.00
5466;DHT22;2755;50.728;7.108;2024-02-23T16:35:40;8.40;1.00
5466;DHT22;2755;50.728;7.108;2024-02-23T16:38:05;7.60;1.00
5466;DHT22;2755;50.728;7.108;2024-02-23T16:42:58;7.90;1.00
5466;DHT22;2755;50.728;7.108;2024-02-23T16:45:25;8.00;1.00
5466;DHT22;2755;50.728;7.108;2024-02-23T16:47:51;7.80;1.00
5466;DHT22;2755;50.728;7.108;2024-02-23T16:50:17;7.60;1.00
5466;DHT22;2755;50.728;7.108;2024-02-23T16:52:43;8.10;1.00
5466;DHT22;2755;50.728;7.108;2024-02-23T16:55:08;7.60;1.00
5466;DHT22;2755;50.728;7.108;2024-02-23T17:00:01;7.70;1.00
5466;DHT22;2755;50.728;7.108;2024-02-23T17:02:27;7.00;1.00
5466;DHT22;2755;50.728;7.108;2024-02-23T17:09:45;8.00;1.00
5466;DHT22;2755;50.728;7.108;2024-02-23T17:12:16;7.40;1.00
5466;DHT22;2755;50.728;7.108;2024-02-23T17:14:53;7.50;1.00
5466;DHT22;2755;50.728;7.108;2024-02-23T17:19:45;7.50;1.00
5466;DHT22;2755;50.728;7.108;2024-02-23T17:22:11;7.80;1.00
5466;DHT22;2755;50.728;7.108;2024-02-23T17:24:36;7.70;1.00
5466;DHT22;2755;50.728;7.108;2024-02-23T17:27:02;7.30;1.00
5466;DHT22;2755;50.728;7.108;2024-02-23T17:29:29;7.50;1.00
5466;DHT22;2755;50.728;7.108;2024-02-23T17:31:55;7.80;1.00
5466;DHT22;2755;50.728;7.108;2024-02-23T17:34:21;7.60;1.00
5466;DHT22;2755;50.728;7.108;2024-02-23T17:39:12;7.20;1.00
5466;DHT22;2755;50.728;7.108;2024-02-23T17:41:39;7.90;1.00
5466;DHT22;2755;50.728;7.108;2024-02-23T17:44:04;7.70;1.00
5466;DHT22;2755;50.728;7.108;2024-02-23T17:46:31;7.80;1.00
5466;DHT22;2755;50.728;7.108;2024-02-23T17:48:56;7.70;1.00
5466;DHT22;2755;50.728;7.108;2024-02-23T17:51:22;7.70;1.00
5466;DHT22;2755;50.728;7.108;2024-02-23T17:53:48;7.30;1.00
5466;DHT22;2755;50.728;7.108;2024-02-23T17:56:13;7.50;1.00
5466;DHT22;2755;50.728;7.108;2024-02-23T17:58:39;8.10;1.00
5466;DHT22;2755;50.728;7.108;2024-02-23T18:01:04;7.60;1.00
5466;DHT22;2755;50.728;7.108;2024-02-23T18:03:30;7.40;1.00
5466;DHT22;2755;50.728;7.108;2024-02-23T18:05:56;7.50;1.00
5466;DHT22;2755;50.728;7.108;2024-02-23T18:13:14;7.50;1.00
5466;DHT22;2755;50.728;7.108;2024-02-23T18:15:40;7.10;1.00
5466;DHT22;2755;50.728;7.108;2024-02-23T18:18:05;6.90;1.00
5466;DHT22;2755;50.728;7.108;2024-02-23T18:20:31;7.40;1.00
5466;DHT22;2755;50.728;7.108;2024-02-23T18:22:57;7.20;1.00
5466;DHT22;2755;50.728;7.108;2024-02-23T18:25:25;6.80;1.00
5466;DHT22;2755;50.728;7.108;2024-02-23T18:27:51;7.10;1.00
5466;DHT22;2755;50.728;7.108;2024-02-23T18:32:43;6.90;1.00
5466;DHT22;2755;50.728;7.108;2024-02-23T18:35:09;7.30;1.00
5466;DHT22;2755;50.728;7.108;2024-02-23T18:37:35;7.20;1.00
5466;DHT22;2755;50.728;7.108;2024-02-23T18:40:02;7.20;1.00
5466;DHT22;2755;50.728;7.108;2024-02-23T18:42:27;7.50;1.00
5466;DHT22;2755;50.728;7.108;2024-02-23T18:44:54;7.10;1.00
5466;DHT22;2755;50.728;7.108;2024-02-23T18:47:22;6.80;1.00
5466;DHT22;2755;50.728;7.108;2024-02-23T18:52:13;7.40;1.00
5466;DHT22;2755;50.728;7.108;2024-02-23T18:54:40;7.90;1.00
5466;DHT22;2755;50.728;7.108;2024-02-23T19:06:49;6.80;1.00
5466;DHT22;2755;50.728;7.108;2024-02-23T19:09:16;7.40;1.00
5466;DHT22;2755;50.728;7.108;2024-02-23T19:11:42;7.30;1.00
5466;DHT22;2755;50.728;7.108;2024-02-23T19:14:07;7.10;1.00
5466;DHT22;2755;50.728;7.108;2024-02-23T19:19:00;6.40;1.00
5466;DHT22;2755;50.728;7.108;2024-02-23T19:21:27;7.10;1.00
5466;DHT22;2755;50.728;7.108;2024-02-23T19:23:52;6.70;1.00
5466;DHT22;2755;50.728;7.108;2024-02-23T19:26:18;6.90;1.00
5466;DHT22;2755;50.728;7.108;2024-02-23T19:38:28;6.50;1.00
5466;DHT22;2755;50.728;7.108;2024-02-23T19:53:07;6.10;1.00
5466;DHT22;2755;50.728;7.108;2024-02-23T19:57:59;5.80;1.00
5466;DHT22;2755;50.728;7.108;2024-02-23T20:00:25;6.30;1.00
5466;DHT22;2755;50.728;7.108;2024-02-23T20:02:52;6.30;1.00
5466;DHT22;2755;50.728;7.108;2024-02-23T20:05:18;6.20;1.00
5466;DHT22;2755;50.728;7.108;2024-02-23T20:17:31;6.20;1.00
5466;DHT22;2755;50.728;7.108;2024-02-23T20:27:16;6.20;1.00
5466;DHT22;2755;50.728;7.108;2024-02-23T20:29:42;6.30;1.00
5466;DHT22;2755;50.728;7.108;2024-02-23T20:34:35;6.20;1.00
5466;DHT22;2755;50.728;7.108;2024-02-23T20:37:00;6.00;1.00
5466;DHT22;2755;50.728;7.108;2024-02-23T20:41:52;6.10;1.00
5466;DHT22;2755;50.728;7.108;2024-02-23T20:44:18;5.50;1.00
5466;DHT22;2755;50.728;7.108;2024-02-23T20:46:46;6.40;1.00
5466;DHT22;2755;50.728;7.108;2024-02-23T20:59:00;6.20;1.00
5466;DHT22;2755;50.728;7.108;2024-02-23T21:06:17;6.10;1.00
5466;DHT22;2755;50.728;7.108;2024-02-23T21:08:44;5.90;1.00
5466;DHT22;2755;50.728;7.108;2024-02-23T21:11:11;6.40;1.00
5466;DHT22;2755;50.728;7.108;2024-02-23T21:13:36;6.10;1.00
5466;DHT22;2755;50.728;7.108;2024-02-23T21:16:02;5.60;1.00
5466;DHT22;2755;50.728;7.108;2024-02-23T21:23:21;6.10;1.00
5466;DHT22;2755;50.728;7.108;2024-02-23T21:25:47;6.60;1.00
5466;DHT22;2755;50.728;7.108;2024-02-23T21:33:09;6.20;1.00
5466;DHT22;2755;50.728;7.108;2024-02-23T21:35:35;6.40;1.00
5466;DHT22;2755;50.728;7.108;2024-02-23T21:38:01;6.50;1.00
5466;DHT22;2755;50.728;7.108;2024-02-23T21:45:19;6.10;1.00
5466;DHT22;2755;50.728;7.108;2024-02-23T21:55:06;6.00;1.00
5466;DHT22;2755;50.728;7.108;2024-02-23T21:57:32;5.20;1.00
5466;DHT22;2755;50.728;7.108;2024-02-23T22:02:23;5.80;1.00